Time;durP1;ratioP1;P1;durP2;ratioP2;P2;SDS_P1;SDS_P2;PMS_P1;PMS_P2;Temp;Humidity;BMP_temperature;BMP_pressure;BME280_temperature;BME280_humidity;BME280_pressure;Samples;Min_cycle;Max_cycle;Signal;HPM_P1;HPM_P2
2021/07/17 00:00:59;;;;;;;6.87;5.90;;;17.60;99.90;;;;;;4998014;28;20541;-56
2021/07/17 00:03:26;;;;;;;9.30;7.07;;;17.70;99.90;;;;;;4995296;28;20470;-56
2021/07/17 00:05:53;;;;;;;11.07;5.60;;;17.70;99.90;;;;;;5001033;28;20504;-56
2021/07/17 00:08:20;;;;;;;7.23;6.53;;;17.70;99.90;;;;;;4996314;28;20451;-56
2021/07/17 00:10:50;;;;;;;7.67;6.83;;;17.80;99.90;;;;;;4985989;28;20453;-56
2021/07/17 00:13:18;;;;;;;7.73;6.23;;;17.70;99.90;;;;;;4996751;28;20453;-56
2021/07/17 00:15:47;;;;;;;6.37;5.77;;;17.80;99.90;;;;;;4995090;28;20458;-56
2021/07/17 00:18:15;;;;;;;8.00;5.63;;;17.80;99.90;;;;;;5007045;28;20848;-56
2021/07/17 00:20:42;;;;;;;6.17;5.50;;;17.70;99.90;;;;;;5014713;28;20485;-57
2021/07/17 00:23:09;;;;;;;4.60;4.20;;;17.70;99.90;;;;;;5008703;28;20867;-57
2021/07/17 00:25:36;;;;;;;4.73;3.67;;;17.60;99.90;;;;;;4994602;28;20454;-56
2021/07/17 00:28:05;;;;;;;4.30;3.77;;;17.70;99.90;;;;;;4995627;28;20450;-57
2021/07/17 00:30:32;;;;;;;4.10;3.77;;;17.60;99.90;;;;;;5011423;28;20480;-58
2021/07/17 00:32:59;;;;;;;4.10;3.70;;;17.70;99.90;;;;;;5003179;28;20481;-56
2021/07/17 00:35:26;;;;;;;5.77;4.23;;;17.70;99.90;;;;;;4998313;28;20477;-56
2021/07/17 00:37:53;;;;;;;4.60;4.20;;;17.70;99.90;;;;;;4994872;28;20869;-56
2021/07/17 00:40:20;;;;;;;5.47;3.97;;;17.60;99.90;;;;;;4997609;28;20473;-57
2021/07/17 00:42:48;;;;;;;4.10;3.70;;;17.70;99.90;;;;;;4994158;28;20459;-59
2021/07/17 00:45:18;;;;;;;5.23;4.57;;;17.60;99.90;;;;;;4994948;28;20481;-57
2021/07/17 00:47:45;;;;;;;3.83;3.50;;;17.60;99.90;;;;;;4998041;28;20453;-57
2021/07/17 00:50:14;;;;;;;4.37;3.97;;;17.60;99.90;;;;;;4994743;28;20525;-57
2021/07/17 00:52:41;;;;;;;7.13;5.20;;;17.50;99.90;;;;;;4997468;28;20517;-56
2021/07/17 00:55:10;;;;;;;5.37;4.70;;;17.50;99.90;;;;;;4994135;28;20482;-57
2021/07/17 00:57:39;;;;;;;5.17;4.57;;;17.50;99.90;;;;;;4997813;28;20519;-57
2021/07/17 01:00:08;;;;;;;6.10;5.23;;;17.60;99.90;;;;;;4990620;28;20992;-57
2021/07/17 01:02:39;;;;;;;5.07;4.57;;;17.60;99.90;;;;;;4991043;28;20454;-58
2021/07/17 01:05:08;;;;;;;7.70;5.07;;;17.60;99.90;;;;;;4994151;28;20474;-56
2021/07/17 01:07:35;;;;;;;5.10;4.60;;;17.60;99.90;;;;;;4994331;28;20509;-56
2021/07/17 01:10:05;;;;;;;5.80;5.17;;;17.50;99.90;;;;;;4997888;28;20451;-57
2021/07/17 01:12:32;;;;;;;6.40;5.80;;;17.60;99.90;;;;;;4992456;28;20463;-57
2021/07/17 01:14:59;;;;;;;7.03;6.33;;;17.60;99.90;;;;;;4995070;28;20559;-56
2021/07/17 01:17:26;;;;;;;6.83;6.13;;;17.70;99.90;;;;;;4993822;28;20513;-57
2021/07/17 01:19:55;;;;;;;7.60;6.23;;;17.60;99.90;;;;;;4993842;28;20482;-57
2021/07/17 01:22:24;;;;;;;7.47;6.27;;;17.60;99.90;;;;;;4992921;28;20459;-57
2021/07/17 01:24:51;;;;;;;6.80;5.97;;;17.60;99.90;;;;;;4974765;28;20638;-57
2021/07/17 01:27:18;;;;;;;8.73;6.93;;;17.60;99.90;;;;;;4991247;28;20505;-57
2021/07/17 01:29:46;;;;;;;8.30;7.50;;;17.60;99.90;;;;;;4993627;28;20463;-57
2021/07/17 01:32:13;;;;;;;6.80;6.10;;;17.40;99.90;;;;;;4987928;28;20887;-57
2021/07/17 01:34:40;;;;;;;8.77;7.87;;;17.50;99.90;;;;;;5013558;28;20539;-57
2021/07/17 01:37:07;;;;;;;7.90;7.10;;;17.60;99.90;;;;;;4997985;28;20878;-57
2021/07/17 01:39:35;;;;;;;8.20;7.30;;;17.50;99.90;;;;;;4997101;28;20482;-57
2021/07/17 01:42:02;;;;;;;8.80;7.90;;;17.40;99.90;;;;;;4993407;28;20450;-57
2021/07/17 01:44:29;;;;;;;9.57;8.57;;;17.40;99.90;;;;;;4997016;28;21054;-56
2021/07/17 01:46:56;;;;;;;10.63;8.80;;;17.40;99.90;;;;;;4992824;28;20454;-56
2021/07/17 01:49:23;;;;;;;9.87;8.70;;;17.50;99.90;;;;;;4993018;28;20556;-59
2021/07/17 01:51:50;;;;;;;10.77;8.00;;;17.50;99.90;;;;;;4993417;28;20879;-57
2021/07/17 01:54:17;;;;;;;12.33;9.23;;;17.50;99.90;;;;;;4992711;28;20478;-57
2021/07/17 01:56:45;;;;;;;11.57;9.83;;;17.40;99.90;;;;;;4997033;28;20451;-57
2021/07/17 01:59:12;;;;;;;11.27;10.07;;;17.40;99.90;;;;;;4992945;28;20513;-57
2021/07/17 02:01:39;;;;;;;10.63;9.40;;;17.40;99.90;;;;;;4987445;28;20486;-57
2021/07/17 02:04:06;;;;;;;11.60;9.10;;;17.40;99.90;;;;;;4991837;28;20897;-57
2021/07/17 02:06:33;;;;;;;11.43;10.00;;;17.40;99.90;;;;;;4993376;28;20453;-56
2021/07/17 02:09:00;;;;;;;12.80;9.93;;;17.40;99.90;;;;;;4991941;28;20508;-56
2021/07/17 02:11:27;;;;;;;10.60;9.47;;;17.50;99.90;;;;;;4993218;28;20883;-57
2021/07/17 02:13:55;;;;;;;12.67;9.80;;;17.50;99.90;;;;;;4991778;28;20529;-56
2021/07/17 02:16:23;;;;;;;11.97;10.03;;;17.50;99.90;;;;;;4993469;28;20512;-56
2021/07/17 02:18:52;;;;;;;11.47;9.90;;;17.40;99.90;;;;;;4996403;28;20454;-57
2021/07/17 02:21:20;;;;;;;13.77;9.80;;;17.40;99.90;;;;;;4985373;28;20936;-57
2021/07/17 02:23:47;;;;;;;12.37;8.47;;;17.40;99.90;;;;;;4975380;28;21239;-57
2021/07/17 02:26:14;;;;;;;8.40;7.57;;;17.40;99.90;;;;;;4994921;28;21010;-57
2021/07/17 02:28:41;;;;;;;11.97;8.27;;;17.50;99.90;;;;;;4992726;28;20454;-58
2021/07/17 02:31:10;;;;;;;9.40;8.20;;;17.50;99.90;;;;;;4992581;28;20473;-58
2021/07/17 02:33:37;;;;;;;10.40;8.17;;;17.50;99.90;;;;;;4992454;28;20474;-56
2021/07/17 02:36:04;;;;;;;12.03;10.03;;;17.60;99.90;;;;;;4996200;28;20449;-57
2021/07/17 02:38:31;;;;;;;10.50;8.83;;;17.60;99.90;;;;;;4991819;28;20458;-57
2021/07/17 02:40:58;;;;;;;10.40;9.27;;;17.50;99.90;;;;;;4992111;28;20482;-58
2021/07/17 02:43:25;;;;;;;10.70;8.40;;;17.50;99.90;;;;;;4995705;28;20525;-58
2021/07/17 02:45:52;;;;;;;12.77;10.10;;;17.60;99.90;;;;;;4992450;28;20513;-58
2021/07/17 02:48:21;;;;;;;9.60;8.60;;;17.60;99.90;;;;;;5001343;28;20507;-57
2021/07/17 02:50:48;;;;;;;12.53;9.60;;;17.60;99.90;;;;;;5001544;28;20446;-57
2021/07/17 02:53:15;;;;;;;8.27;7.23;;;17.60;99.90;;;;;;4994873;28;20819;-58
2021/07/17 02:55:41;;;;;;;9.27;7.57;;;17.60;99.90;;;;;;4977955;28;20817;-57
2021/07/17 02:58:08;;;;;;;10.83;8.50;;;17.60;99.90;;;;;;4992415;28;20505;-57
2021/07/17 03:00:36;;;;;;;10.60;8.50;;;17.60;99.90;;;;;;4994835;28;20536;-57
2021/07/17 03:03:03;;;;;;;15.90;10.43;;;17.60;99.90;;;;;;4992063;28;20461;-57
2021/07/17 03:05:32;;;;;;;12.73;9.87;;;17.60;99.90;;;;;;4995655;28;20454;-57
2021/07/17 03:07:59;;;;;;;16.93;9.93;;;17.50;99.90;;;;;;4992375;28;20446;-57
2021/07/17 03:10:26;;;;;;;9.50;8.47;;;17.50;99.90;;;;;;4989811;28;20462;-56
2021/07/17 03:12:53;;;;;;;9.80;7.63;;;17.50;99.90;;;;;;4991522;28;20454;-55
2021/07/17 03:15:20;;;;;;;9.03;7.67;;;17.60;99.90;;;;;;4992206;28;20466;-58
2021/07/17 03:17:47;;;;;;;10.00;8.37;;;17.60;99.90;;;;;;4995693;28;20446;-58
2021/07/17 03:20:14;;;;;;;14.07;9.67;;;17.60;99.90;;;;;;4991960;28;20454;-58
2021/07/17 03:22:43;;;;;;;10.30;8.50;;;17.60;99.90;;;;;;4997779;28;20877;-57
2021/07/17 03:25:10;;;;;;;11.50;7.97;;;17.60;99.90;;;;;;4993546;28;20905;-58
2021/07/17 03:27:37;;;;;;;10.77;8.57;;;17.60;99.90;;;;;;4993342;28;20450;-57
2021/07/17 03:30:06;;;;;;;12.73;8.70;;;17.60;99.90;;;;;;4992769;28;20892;-57
2021/07/17 03:32:33;;;;;;;9.10;8.20;;;17.60;99.90;;;;;;4989470;28;20458;-57
2021/07/17 03:35:00;;;;;;;11.63;9.80;;;17.70;99.90;;;;;;4997450;28;20466;-57
2021/07/17 03:37:27;;;;;;;10.70;9.00;;;17.60;99.90;;;;;;4995989;28;20457;-57
2021/07/17 03:39:55;;;;;;;8.70;7.07;;;17.60;99.90;;;;;;4999670;28;20943;-58
2021/07/17 03:42:23;;;;;;;12.73;9.10;;;17.60;99.90;;;;;;4995428;28;20482;-58
2021/07/17 03:44:50;;;;;;;10.10;8.50;;;17.60;99.90;;;;;;4996425;28;20819;-56
2021/07/17 03:47:17;;;;;;;7.90;7.10;;;17.60;99.90;;;;;;4997961;28;20482;-55
2021/07/17 03:49:44;;;;;;;11.03;8.40;;;17.60;99.90;;;;;;4985005;28;20454;-55
2021/07/17 03:52:11;;;;;;;11.03;8.80;;;17.60;99.90;;;;;;5002240;28;20443;-56
2021/07/17 03:54:38;;;;;;;8.30;7.40;;;17.50;99.90;;;;;;4995601;28;20474;-56
2021/07/17 03:57:06;;;;;;;9.70;7.80;;;17.50;99.90;;;;;;4999160;28;20576;-56
2021/07/17 03:59:33;;;;;;;10.60;8.90;;;17.50;99.90;;;;;;4994072;28;20501;-56
2021/07/17 04:02:00;;;;;;;9.93;7.87;;;17.60;99.90;;;;;;4993673;28;20882;-56
2021/07/17 04:04:27;;;;;;;9.83;8.83;;;17.60;99.90;;;;;;5010604;28;20484;-56
2021/07/17 04:06:57;;;;;;;10.00;7.83;;;17.60;99.90;;;;;;5015299;28;20507;-56
2021/07/17 04:09:24;;;;;;;8.87;7.10;;;17.60;99.90;;;;;;5004538;28;20453;-56
2021/07/17 04:11:51;;;;;;;9.70;6.40;;;17.60;99.90;;;;;;4994985;28;20446;-56
2021/07/17 04:14:19;;;;;;;11.20;9.07;;;17.60;99.90;;;;;;4996791;28;20893;-56
2021/07/17 04:16:47;;;;;;;12.10;8.93;;;17.50;99.90;;;;;;4990927;28;20477;-57
2021/07/17 04:19:15;;;;;;;7.53;6.80;;;17.50;99.90;;;;;;4995070;28;20952;-56
2021/07/17 04:21:42;;;;;;;11.27;9.00;;;17.60;99.90;;;;;;5009971;28;20532;-56
2021/07/17 04:24:09;;;;;;;7.73;6.93;;;17.50;99.90;;;;;;4989810;28;20479;-57
2021/07/17 04:26:36;;;;;;;8.70;7.73;;;17.60;99.90;;;;;;4982140;28;20505;-56
2021/07/17 04:29:03;;;;;;;11.50;8.57;;;17.60;99.90;;;;;;4980904;28;20948;-56
2021/07/17 04:31:32;;;;;;;8.33;7.40;;;17.50;99.90;;;;;;4985710;28;20451;-56
2021/07/17 04:33:59;;;;;;;12.50;9.33;;;17.60;99.90;;;;;;4980989;28;20459;-55
2021/07/17 04:36:26;;;;;;;12.17;10.20;;;17.60;99.90;;;;;;4976817;28;20451;-56
2021/07/17 04:38:53;;;;;;;10.60;9.23;;;17.60;99.90;;;;;;4975789;28;21028;-56
2021/07/17 04:41:20;;;;;;;7.53;6.23;;;17.60;99.90;;;;;;4974470;28;21074;-56
2021/07/17 04:43:47;;;;;;;9.80;8.17;;;17.60;99.90;;;;;;4982855;28;20470;-56
2021/07/17 04:46:14;;;;;;;9.20;7.30;;;17.60;99.90;;;;;;4974367;28;20531;-57
2021/07/17 04:48:42;;;;;;;9.30;7.90;;;17.60;99.90;;;;;;4977224;28;20450;-55
2021/07/17 04:51:09;;;;;;;7.70;6.10;;;17.60;99.90;;;;;;4991322;28;21023;-55
2021/07/17 04:53:36;;;;;;;6.13;5.53;;;17.70;99.90;;;;;;4974083;28;20530;-56
2021/07/17 04:56:04;;;;;;;7.73;6.67;;;17.80;99.90;;;;;;4979861;28;20505;-56
2021/07/17 04:58:31;;;;;;;8.57;6.90;;;17.90;99.90;;;;;;4992315;28;20451;-56
2021/07/17 05:00:58;;;;;;;8.83;7.83;;;18.00;99.90;;;;;;4986070;28;20489;-56
2021/07/17 05:03:25;;;;;;;8.07;7.27;;;17.90;99.90;;;;;;4974118;28;20514;-56
2021/07/17 05:05:53;;;;;;;11.27;6.97;;;17.70;99.90;;;;;;4974260;28;20514;-56
2021/07/17 05:08:20;;;;;;;8.43;7.50;;;17.70;99.90;;;;;;4974042;28;20443;-56
2021/07/17 05:10:48;;;;;;;10.50;7.80;;;17.80;99.90;;;;;;4974124;28;20448;-56
2021/07/17 05:13:15;;;;;;;8.57;7.20;;;18.00;99.90;;;;;;4978838;28;20466;-56
2021/07/17 05:15:43;;;;;;;6.60;5.97;;;18.20;99.90;;;;;;4992080;28;20451;-56
2021/07/17 05:18:11;;;;;;;7.10;6.43;;;18.20;99.90;;;;;;4984795;28;20586;-56
2021/07/17 05:20:39;;;;;;;5.53;5.03;;;18.10;99.90;;;;;;4974198;28;20458;-56
2021/07/17 05:23:07;;;;;;;6.33;5.60;;;18.10;99.90;;;;;;4978512;28;20472;-56
2021/07/17 05:25:34;;;;;;;7.53;6.20;;;18.10;99.90;;;;;;4983025;28;20872;-56
2021/07/17 05:28:01;;;;;;;10.87;5.00;;;18.10;99.90;;;;;;4974394;28;20945;-57
2021/07/17 05:30:28;;;;;;;9.70;7.10;;;18.00;99.90;;;;;;4985574;28;20452;-57
2021/07/17 05:32:55;;;;;;;6.77;6.17;;;18.00;99.90;;;;;;4989153;28;20451;-56
2021/07/17 05:35:22;;;;;;;8.00;6.97;;;18.00;99.90;;;;;;4988782;28;20524;-57
2021/07/17 05:37:49;;;;;;;9.67;7.47;;;17.90;99.90;;;;;;4982539;28;20455;-57
2021/07/17 05:40:18;;;;;;;7.50;6.70;;;17.70;99.90;;;;;;4992661;28;20458;-57
2021/07/17 05:42:45;;;;;;;11.47;7.67;;;17.80;99.90;;;;;;4986294;28;20876;-57
2021/07/17 05:45:13;;;;;;;10.63;7.80;;;17.80;99.90;;;;;;4977699;28;20537;-57
2021/07/17 05:47:41;;;;;;;9.80;8.50;;;17.90;99.90;;;;;;4987186;28;20527;-57
2021/07/17 05:50:08;;;;;;;8.60;7.70;;;17.90;99.90;;;;;;4986994;28;20539;-57
2021/07/17 05:52:36;;;;;;;8.00;7.20;;;18.00;99.90;;;;;;4988610;28;20208;-58
2021/07/17 05:55:03;;;;;;;8.53;6.70;;;18.10;99.90;;;;;;5044089;23;20519;-52
2021/07/17 05:57:33;;;;;;;8.70;7.07;;;18.20;99.90;;;;;;5030798;28;20448;-51
2021/07/17 06:00:00;;;;;;;7.43;6.53;;;18.30;99.90;;;;;;5028475;28;20824;-51
2021/07/17 06:02:27;;;;;;;6.37;5.60;;;18.30;99.90;;;;;;5031031;28;20577;-52
2021/07/17 06:04:55;;;;;;;8.00;6.47;;;18.30;99.90;;;;;;5029190;28;20468;-52
2021/07/17 06:07:22;;;;;;;11.37;6.70;;;18.30;99.90;;;;;;5032011;28;20457;-51
2021/07/17 06:09:50;;;;;;;8.80;7.00;;;18.20;99.90;;;;;;5032035;28;20845;-52
2021/07/17 06:12:17;;;;;;;7.73;5.90;;;18.10;99.90;;;;;;5030299;28;20455;-52
2021/07/17 06:14:45;;;;;;;8.53;7.10;;;18.10;99.90;;;;;;5031734;28;20982;-52
2021/07/17 06:17:12;;;;;;;6.70;6.10;;;18.30;99.90;;;;;;5025696;28;20449;-51
2021/07/17 06:19:40;;;;;;;8.23;6.20;;;18.40;99.90;;;;;;5031581;28;20457;-52
2021/07/17 06:22:07;;;;;;;8.83;7.23;;;18.50;99.90;;;;;;5032886;28;20480;-51
2021/07/17 06:24:34;;;;;;;8.17;7.37;;;18.40;99.90;;;;;;5032075;28;21001;-51
2021/07/17 06:27:01;;;;;;;8.03;7.23;;;18.30;99.90;;;;;;5031734;28;20449;-52
2021/07/17 06:29:28;;;;;;;8.27;7.47;;;18.40;99.90;;;;;;5038024;28;20459;-51
2021/07/17 06:32:00;;;;;;;9.47;7.60;;;18.40;99.90;;;;;;5032217;28;20494;-50
2021/07/17 06:34:27;;;;;;;7.10;6.03;;;18.40;99.90;;;;;;5025843;28;20469;-52
2021/07/17 06:36:54;;;;;;;9.97;7.70;;;18.50;99.90;;;;;;5036531;28;20469;-51
2021/07/17 06:39:21;;;;;;;8.47;7.60;;;18.40;99.90;;;;;;5030700;28;20536;-52
2021/07/17 06:41:48;;;;;;;7.80;6.53;;;18.30;99.90;;;;;;5033815;28;20480;-50
2021/07/17 06:44:15;;;;;;;8.40;7.47;;;18.40;99.90;;;;;;5036090;28;20529;-51
2021/07/17 06:46:42;;;;;;;9.80;8.10;;;18.30;99.90;;;;;;5028116;28;20461;-52
2021/07/17 06:49:11;;;;;;;9.40;8.40;;;18.10;99.90;;;;;;5037792;28;20509;-52
2021/07/17 06:51:38;;;;;;;9.47;7.90;;;18.00;99.90;;;;;;5026509;28;20449;-51
2021/07/17 06:54:05;;;;;;;26.37;18.53;;;18.00;99.90;;;;;;5031215;28;20484;-51
2021/07/17 06:56:32;;;;;;;23.07;16.97;;;17.90;99.90;;;;;;5034923;28;20507;-52
2021/07/17 06:58:59;;;;;;;21.00;15.93;;;17.90;99.90;;;;;;5030128;28;20951;-52
2021/07/17 07:01:26;;;;;;;18.10;14.40;;;18.10;99.90;;;;;;5032584;28;20878;-51
2021/07/17 07:03:53;;;;;;;15.67;13.33;;;18.30;99.90;;;;;;5026864;28;20863;-51
2021/07/17 07:06:21;;;;;;;12.33;10.00;;;18.60;99.90;;;;;;5030645;28;20440;-51
2021/07/17 07:08:48;;;;;;;10.10;8.50;;;18.80;99.90;;;;;;5024061;28;20458;-52
2021/07/17 07:11:15;;;;;;;11.60;10.40;;;19.00;99.90;;;;;;5030373;28;20545;-50
2021/07/17 07:13:42;;;;;;;11.70;9.10;;;19.20;99.90;;;;;;5028873;28;20467;-52
2021/07/17 07:16:09;;;;;;;8.37;7.47;;;19.60;99.90;;;;;;5048761;28;20901;-52
2021/07/17 07:18:36;;;;;;;10.50;8.77;;;19.90;99.90;;;;;;5051294;28;21011;-51
2021/07/17 07:21:03;;;;;;;9.40;7.60;;;20.30;99.90;;;;;;5033876;28;20986;-52
2021/07/17 07:23:32;;;;;;;7.90;7.10;;;20.50;99.90;;;;;;5030065;28;20483;-51
2021/07/17 07:25:59;;;;;;;8.80;6.97;;;20.70;99.90;;;;;;5027580;28;20473;-52
2021/07/17 07:28:25;;;;;;;10.50;7.83;;;20.70;99.90;;;;;;5031210;28;20452;-52
2021/07/17 07:30:52;;;;;;;10.17;8.77;;;20.70;99.90;;;;;;5030157;28;20449;-51
2021/07/17 07:33:19;;;;;;;11.83;9.83;;;20.40;99.90;;;;;;5026737;28;20515;-51
2021/07/17 07:35:46;;;;;;;12.53;8.73;;;19.60;99.90;;;;;;5041464;28;20577;-51
2021/07/17 07:38:13;;;;;;;11.00;8.70;;;19.50;99.90;;;;;;5042875;28;20451;-51
2021/07/17 07:40:42;;;;;;;16.43;9.63;;;19.40;99.90;;;;;;5031791;28;20453;-51
2021/07/17 07:43:10;;;;;;;10.87;8.47;;;19.20;99.90;;;;;;5022456;28;20484;-52
2021/07/17 07:45:37;;;;;;;9.87;8.73;;;19.20;99.90;;;;;;5032884;28;20477;-52
2021/07/17 07:48:04;;;;;;;11.70;8.70;;;19.30;99.90;;;;;;5041886;28;20448;-52
2021/07/17 07:50:31;;;;;;;13.87;11.53;;;19.40;99.90;;;;;;5026580;28;20460;-51
2021/07/17 07:52:59;;;;;;;14.23;12.10;;;19.40;99.90;;;;;;5032841;28;20445;-51
2021/07/17 07:55:26;;;;;;;15.40;12.60;;;19.30;99.90;;;;;;5019820;28;21059;-52
2021/07/17 07:57:54;;;;;;;18.67;13.53;;;19.20;99.90;;;;;;5039967;28;20949;-51
2021/07/17 08:00:21;;;;;;;19.37;13.10;;;19.00;99.90;;;;;;5049245;28;20498;-52
2021/07/17 08:02:48;;;;;;;17.60;13.80;;;18.90;99.90;;;;;;5023742;28;20524;-51
2021/07/17 08:05:15;;;;;;;21.07;13.83;;;18.70;99.90;;;;;;5010977;28;20474;-51
2021/07/17 08:07:42;;;;;;;18.70;14.93;;;18.60;99.90;;;;;;5047674;28;20459;-52
2021/07/17 08:10:10;;;;;;;21.85;16.35;;;18.60;99.90;;;;;;5031021;28;20859;-51
2021/07/17 08:12:37;;;;;;;20.67;15.20;;;18.50;99.90;;;;;;5035586;28;20202;-52
2021/07/17 08:15:07;;;;;;;21.43;16.43;;;18.40;99.90;;;;;;5027063;28;20993;-51
2021/07/17 08:17:34;;;;;;;23.10;16.90;;;18.40;99.90;;;;;;5030823;28;20456;-51
2021/07/17 08:20:01;;;;;;;26.20;17.27;;;18.40;99.90;;;;;;5030568;28;20461;-50
2021/07/17 08:22:28;;;;;;;23.53;16.93;;;18.40;99.90;;;;;;5029799;28;20476;-51
2021/07/17 08:24:55;;;;;;;30.10;18.07;;;18.40;99.90;;;;;;5032573;28;20472;-51
2021/07/17 08:27:22;;;;;;;26.87;17.47;;;18.50;99.90;;;;;;5019626;28;20449;-51
2021/07/17 08:29:51;;;;;;;26.40;18.33;;;18.50;99.90;;;;;;5026300;28;20459;-51
2021/07/17 08:32:20;;;;;;;26.10;17.47;;;18.40;99.90;;;;;;5046998;28;20836;-51
2021/07/17 08:34:50;;;;;;;24.37;16.23;;;18.40;99.90;;;;;;5033064;28;20472;-51
2021/07/17 08:37:17;;;;;;;29.20;18.50;;;18.50;99.90;;;;;;5029024;28;20484;-51
2021/07/17 08:39:44;;;;;;;28.07;17.90;;;18.60;99.90;;;;;;5029749;28;20453;-51
2021/07/17 08:42:13;;;;;;;26.80;18.70;;;18.80;99.90;;;;;;5025843;28;21245;-51
2021/07/17 08:44:42;;;;;;;25.40;18.50;;;18.70;99.90;;;;;;5028968;28;20477;-51
2021/07/17 08:47:10;;;;;;;27.53;18.63;;;18.50;99.90;;;;;;5038214;28;20873;-51
2021/07/17 08:49:39;;;;;;;28.07;18.73;;;18.40;99.90;;;;;;5039332;28;20473;-51
2021/07/17 08:52:06;;;;;;;30.33;19.90;;;18.40;99.90;;;;;;5028189;28;20538;-50
2021/07/17 08:54:33;;;;;;;27.30;18.40;;;18.40;99.90;;;;;;5033482;28;20914;-52
2021/07/17 08:57:01;;;;;;;26.83;18.30;;;18.50;99.90;;;;;;5027832;28;20510;-51
2021/07/17 08:59:27;;;;;;;25.53;17.63;;;18.50;99.90;;;;;;5034007;28;20507;-51
2021/07/17 09:01:54;;;;;;;28.63;18.30;;;18.50;99.90;;;;;;5029062;28;20502;-51
2021/07/17 09:04:26;;;;;;;29.97;18.67;;;18.50;99.90;;;;;;5033389;28;20472;-51
2021/07/17 09:06:55;;;;;;;29.03;18.40;;;18.50;99.90;;;;;;5033076;28;20450;-51
2021/07/17 09:09:32;;;;;;;27.70;17.53;;;18.70;99.90;;;;;;5032170;28;20447;-51
2021/07/17 09:11:59;;;;;;;26.50;18.20;;;18.70;99.90;;;;;;5042707;28;20886;-51
2021/07/17 09:14:38;;;;;;;31.20;17.90;;;18.80;99.90;;;;;;5032199;28;20529;-51
2021/07/17 09:17:05;;;;;;;32.27;18.83;;;18.70;99.90;;;;;;5032707;28;20444;-51
2021/07/17 09:19:33;;;;;;;26.90;17.53;;;18.70;99.90;;;;;;5031948;28;20449;-51
2021/07/17 09:22:05;;;;;;;28.57;18.60;;;18.80;99.90;;;;;;5032850;28;20441;-51
2021/07/17 09:24:32;;;;;;;32.13;18.90;;;18.80;99.90;;;;;;5031111;28;20469;-51
2021/07/17 09:27:00;;;;;;;33.93;21.60;;;18.90;99.90;;;;;;5033002;28;20445;-51
2021/07/17 09:29:37;;;;;;;29.03;18.60;;;18.90;99.90;;;;;;5032912;28;20532;-52
2021/07/17 09:32:15;;;;;;;28.83;19.00;;;19.20;99.90;;;;;;5030453;28;20507;-52
2021/07/17 09:34:42;;;;;;;28.40;16.63;;;19.30;99.90;;;;;;5032651;28;20997;-51
2021/07/17 09:37:11;;;;;;;25.97;17.27;;;19.30;99.90;;;;;;5029598;28;20498;-51
2021/07/17 09:39:40;;;;;;;25.53;17.40;;;19.20;99.90;;;;;;5036748;28;20887;-51
2021/07/17 09:42:08;;;;;;;31.57;18.70;;;19.30;99.90;;;;;;5034213;28;20482;-51
2021/07/17 09:44:36;;;;;;;26.13;17.57;;;19.30;99.90;;;;;;5031350;28;20513;-51
2021/07/17 09:47:14;;;;;;;30.67;17.77;;;19.20;99.90;;;;;;5028565;28;21205;-50
2021/07/17 09:49:41;;;;;;;29.70;18.33;;;19.20;99.90;;;;;;5029127;28;20510;-51
2021/07/17 09:52:11;;;;;;;24.50;16.97;;;19.30;99.90;;;;;;5030527;28;20448;-52
2021/07/17 09:54:39;;;;;;;24.87;16.47;;;19.50;99.90;;;;;;5025970;28;20910;-51
2021/07/17 09:57:09;;;;;;;27.50;16.93;;;19.60;99.90;;;;;;5031598;28;20880;-52
2021/07/17 09:59:36;;;;;;;26.73;15.53;;;19.70;99.90;;;;;;5029436;28;20495;-51
2021/07/17 10:02:03;;;;;;;26.33;15.40;;;19.70;99.90;;;;;;5031214;28;20444;-51
2021/07/17 10:04:30;;;;;;;25.87;15.63;;;19.90;99.90;;;;;;5030534;28;20562;-52
2021/07/17 10:06:59;;;;;;;21.60;14.53;;;20.30;99.90;;;;;;5030488;28;20448;-51
2021/07/17 10:09:32;;;;;;;20.40;14.27;;;20.30;99.90;;;;;;5031219;28;20453;-51
2021/07/17 10:12:04;;;;;;;22.83;15.03;;;20.00;99.90;;;;;;5029978;28;21012;-51
2021/07/17 10:14:34;;;;;;;22.37;15.50;;;20.00;99.90;;;;;;5031079;28;20460;-52
2021/07/17 10:17:07;;;;;;;20.47;14.63;;;20.10;99.90;;;;;;5030065;28;21008;-50
2021/07/17 10:19:35;;;;;;;21.50;12.87;;;20.60;99.90;;;;;;5030987;28;20449;-52
2021/07/17 10:22:04;;;;;;;19.87;13.80;;;21.50;99.90;;;;;;5028780;28;20457;-51
2021/07/17 10:24:32;;;;;;;17.43;12.60;;;22.10;99.90;;;;;;5029458;28;20849;-51
2021/07/17 10:27:00;;;;;;;18.60;12.27;;;21.90;99.90;;;;;;5028894;28;20507;-52
2021/07/17 10:29:28;;;;;;;16.83;11.97;;;21.40;99.90;;;;;;5029198;28;20453;-51
2021/07/17 10:32:00;;;;;;;16.40;12.43;;;21.10;99.90;;;;;;5027724;28;20495;-51
2021/07/17 10:34:27;;;;;;;16.07;11.67;;;20.70;99.90;;;;;;5028204;28;20503;-52
2021/07/17 10:37:01;;;;;;;16.90;11.30;;;20.30;99.90;;;;;;5030185;28;20452;-51
2021/07/17 10:39:33;;;;;;;14.47;11.67;;;20.10;99.90;;;;;;5028951;28;20543;-51
2021/07/17 10:42:04;;;;;;;13.83;10.47;;;20.10;99.90;;;;;;5030333;28;20445;-51
2021/07/17 10:44:42;;;;;;;14.93;10.60;;;20.50;99.90;;;;;;5030546;28;20513;-51
2021/07/17 10:47:10;;;;;;;14.50;10.50;;;21.40;99.90;;;;;;5029397;28;20852;-51
2021/07/17 10:49:39;;;;;;;13.00;10.60;;;21.50;99.90;;;;;;5030256;28;20523;-51
2021/07/17 10:52:07;;;;;;;15.37;10.93;;;21.40;99.90;;;;;;5026663;28;20453;-51
2021/07/17 10:54:36;;;;;;;14.23;11.40;;;21.20;99.90;;;;;;5029986;28;21971;-51
2021/07/17 10:57:04;;;;;;;15.00;11.40;;;20.80;99.90;;;;;;5028829;28;20450;-51
2021/07/17 10:59:46;;;;;;;16.67;12.67;;;20.80;99.90;;;;;;5028348;28;20449;-52
2021/07/17 11:02:15;;;;;;;16.93;12.47;;;20.70;99.90;;;;;;5030032;28;20895;-52
2021/07/17 11:04:49;;;;;;;13.97;11.03;;;20.90;99.90;;;;;;5029601;28;20488;-51
2021/07/17 11:07:42;;;;;;;16.50;11.50;;;21.00;99.90;;;;;;5030966;28;20444;-52
2021/07/17 11:10:16;;;;;;;15.47;11.83;;;20.90;99.90;;;;;;5028252;28;20460;-51
2021/07/17 11:13:04;;;;;;;15.20;11.80;;;20.80;99.90;;;;;;5029463;28;20477;-51
2021/07/17 11:15:33;;;;;;;16.60;11.70;;;21.00;99.90;;;;;;5027368;28;20546;-51
2021/07/17 11:18:00;;;;;;;15.90;12.57;;;21.10;99.90;;;;;;5029514;28;20449;-50
2021/07/17 11:20:32;;;;;;;16.50;12.10;;;21.00;99.90;;;;;;5028773;28;20460;-51
2021/07/17 11:23:04;;;;;;;15.20;11.70;;;21.60;99.90;;;;;;5029912;28;20634;-51
2021/07/17 11:25:33;;;;;;;14.93;10.80;;;22.10;99.90;;;;;;5028932;28;20464;-51
2021/07/17 11:28:01;;;;;;;12.90;10.13;;;22.00;99.90;;;;;;5027613;28;20966;-50
2021/07/17 11:30:33;;;;;;;15.10;11.40;;;21.80;99.90;;;;;;5030051;28;20448;-53
2021/07/17 11:33:16;;;;;;;13.07;10.37;;;22.10;99.90;;;;;;5027745;28;20452;-53
2021/07/17 11:35:45;;;;;;;14.20;10.50;;;22.50;99.90;;;;;;5029809;28;20495;-53
2021/07/17 11:38:13;;;;;;;12.10;9.70;;;22.70;99.90;;;;;;5028137;28;20441;-50
2021/07/17 11:40:41;;;;;;;12.70;9.47;;;22.90;99.90;;;;;;5029798;28;20531;-50
2021/07/17 11:43:11;;;;;;;13.77;10.20;;;22.80;99.90;;;;;;5025709;28;20473;-51
2021/07/17 11:45:39;;;;;;;12.00;10.30;;;22.60;99.90;;;;;;5030099;28;20468;-51
2021/07/17 11:48:10;;;;;;;12.53;10.80;;;22.60;99.90;;;;;;5030615;28;20567;-51
2021/07/17 11:50:38;;;;;;;11.30;9.70;;;22.50;99.90;;;;;;5028609;28;20962;-51
2021/07/17 11:53:14;;;;;;;12.13;9.83;;;23.00;99.90;;;;;;5031716;28;20803;-52
2021/07/17 11:55:43;;;;;;;13.23;10.27;;;23.10;99.90;;;;;;5030353;28;20522;-51
2021/07/17 11:58:18;;;;;;;14.57;11.30;;;23.10;99.90;;;;;;5034463;28;20527;-52
2021/07/17 12:00:45;;;;;;;12.40;9.77;;;23.40;99.90;;;;;;5063956;22;20548;-58
2021/07/17 12:03:12;;;;;;;12.63;10.87;;;22.90;99.90;;;;;;5052162;28;20489;-57
2021/07/17 12:05:39;;;;;;;13.13;9.57;;;22.60;99.90;;;;;;5054053;28;20451;-59
2021/07/17 12:08:07;;;;;;;13.70;9.87;;;22.40;99.90;;;;;;5048869;28;20451;-58
2021/07/17 12:10:34;;;;;;;14.20;11.30;;;22.40;99.90;;;;;;5049022;28;20463;-58
2021/07/17 12:13:04;;;;;;;13.40;10.70;;;21.90;99.90;;;;;;5048943;28;20444;-59
2021/07/17 12:15:33;;;;;;;13.90;11.07;;;21.60;99.90;;;;;;5053386;28;20455;-58
2021/07/17 12:18:02;;;;;;;24.83;12.50;;;21.60;99.90;;;;;;5048245;28;20456;-58
2021/07/17 12:20:31;;;;;;;14.30;10.43;;;21.60;99.90;;;;;;5052310;28;20514;-59
2021/07/17 12:23:08;;;;;;;17.57;10.60;;;21.80;99.90;;;;;;5052110;28;20505;-59
2021/07/17 12:25:37;;;;;;;14.03;10.90;;;21.90;99.90;;;;;;5052243;28;20469;-58
2021/07/17 12:28:17;;;;;;;12.97;10.17;;;21.60;99.90;;;;;;5053349;28;20458;-59
2021/07/17 12:30:46;;;;;;;12.27;10.30;;;21.40;99.90;;;;;;5053618;28;20471;-59
2021/07/17 12:33:22;;;;;;;12.83;10.40;;;21.70;99.90;;;;;;5045259;28;20973;-58
2021/07/17 12:35:51;;;;;;;13.80;10.83;;;22.00;99.90;;;;;;5042237;28;20459;-58
2021/07/17 12:38:21;;;;;;;12.07;10.17;;;22.00;99.90;;;;;;5053098;28;20455;-58
2021/07/17 12:40:50;;;;;;;15.50;10.23;;;22.40;99.90;;;;;;5050767;28;20518;-59